Echo Bay, Nevada
Current Conditions -  °F | °C
As of 5:58 AM on Friday 28 Nov 2014 (Local Time) from KLSV Reporting Station
Clear Clear  
Wind Chill:   Ceiling: Unl
Heat Index:   Visibility: 10mi
Dew Point: -9°   Wind: 1mph
Humidity: 43%   Direction: NA
Pressure: 30.11"   Gusts: NA
Location:  36.5809°N, 114.605°W
Report Text: KLSV 281358Z AUTO VRB01KT 10SM CLR 02/M09 A3011 RMK AO2 SLP199 T00191094
Loading
Personal Weather Stations






























Interactive Weather Map New forecast layout! Learn more

10-Day Weather Forecast

Advertisements
Track Severe Weather on mobile